• Join FlightAware (Why Join?)
  • Login
  • US Flag 
04:40AM EDT


 

Airport Tracker/Info


-or-


 

Live Flight TrackerFlight Track Log ✈ DAL6089 ✈ 26-Apr-2013 ✈ KSDF - KLGA

Flight Track Log - Related Links

Times and Time Zones

All times are in EDT time to prevent confusion due to time zone crossing. See the DAL6089 flight status page for this flight to view local times or setup timezone preferences in your user account.

Time Position Orientation Groundspeed Altitude Reporting Facility
EDT Latitude Longitude Course Direction KTS MPH feet Rate Location/Type
06:11AM 38.0844 -85.6911 96° East 219 252 5,300  Level Indianapolis Center
06:12AM 38.0581 -85.3227 98° East  Level FlightAware Approximate
06:12AM 38.0803 -85.6053 94° East 248 285 7,600  Level Indianapolis Center
06:13AM 38.0387 -85.1766 101° East  Level FlightAware Approximate
06:13AM 38.0806 -85.5064 90° East 274 315 10,100  Level Indianapolis Center
06:14AM 38.0161 -85.0312 108° East  Level FlightAware Approximate
06:14AM 38.0769 -85.3978 92° East 304 350 11,800  Level Indianapolis Center
06:15AM 37.9825 -84.8895 96° East  Level FlightAware Approximate
06:15AM 38.0564 -85.2764 102° East 349 402 13,400  Level Indianapolis Center
06:16AM 37.9709 -84.7502 96° East  Level FlightAware Approximate
06:16AM 38.0369 -85.1492 101° East 372 428 15,000  Level Indianapolis Center
06:17AM 38.0156 -85.0167 102° East 381 438 16,700 1,440 Climbing Indianapolis Center
06:18AM 37.9944 -84.8814 101° East 388 447 18,000 1,440 Climbing Indianapolis Center
06:19AM 37.9714 -84.7439 102° East 393 452 19,700 1,620 Climbing Indianapolis Center
06:20AM 37.9489 -84.6042 102° East 401 461 21,400 1,680 Climbing Indianapolis Center
06:21AM 37.9250 -84.4594 102° East 412 474 23,200 1,680 Climbing Indianapolis Center
06:22AM 37.9017 -84.3139 101° East 421 484 24,900 1,560 Climbing Indianapolis Center
06:23AM 37.8769 -84.1669 102° East 423 487 26,400 1,440 Climbing Indianapolis Center
06:24AM 37.8519 -84.0164 102° East 434 499 27,900 1,260 Climbing Indianapolis Center
06:25AM 37.8256 -83.8653 102° East 438 504 29,000 540 Climbing Indianapolis Center
06:26AM 37.7992 -83.7008 101° East 469 540 29,000  Level Indianapolis Center
06:27AM 37.7658 -83.5064 102° East 483 556 29,000  Level Indianapolis Center
06:28AM 37.7369 -83.3381 102° East 490 564 29,000  Level Indianapolis Center
06:29AM 37.7075 -83.1706 102° East 487 560 29,000  Level Indianapolis Center
06:30AM 37.6772 -83.0008 103° East 491 565 29,000  Level Indianapolis Center
06:31AM 37.6472 -82.8333 103° East 488 562 29,000  Level Indianapolis Center
06:32AM 37.6419 -82.6689 92° East 478 550 29,000  Level Indianapolis Center
06:33AM 37.6569 -82.5069 83° East 466 536 29,000  Level Indianapolis Center
06:34AM 37.6717 -82.3433 83° East 466 536 29,000  Level Indianapolis Center
06:35AM 37.6864 -82.1808 83° East 465 535 29,000  Level Indianapolis Center
06:36AM 37.7031 -82.0222 82° East 458 527 29,000  Level Indianapolis Center
06:37AM 37.7172 -81.8603 84° East 462 532 29,000  Level Indianapolis Center
06:38AM 37.7319 -81.7006 83° East 459 528 29,000  Level Indianapolis Center
06:39AM 37.7458 -81.5403 84° East 458 527 29,000  Level Indianapolis Center
06:40AM 37.7597 -81.3767 84° East 456 525 29,000  Level Indianapolis Center
06:41AM 37.7683 -81.2561 85° East 445 512 29,000  Level Washington Center
06:42AM 37.7817 -81.1019 84° East 445 512 29,000  Level Washington Center
06:43AM 37.7908 -80.9450 86° East 445 512 29,000  Level Washington Center
06:44AM 37.8022 -80.7853 85° East 445 512 29,000  Level Washington Center
06:45AM 37.8122 -80.6467 85° East 445 512 29,000  Level Washington Center
06:46AM 37.8211 -80.4869 86° East 445 512 29,000  Level Washington Center
06:47AM 37.8333 -80.3325 84° East 445 512 29,000  Level Washington Center
06:48AM 37.8417 -80.1728 86° East 440 506 29,000  Level Washington Center
06:49AM 37.8525 -79.9997 85° East 440 506 29,000  Level Washington Center
06:50AM 37.8622 -79.8425 85° East 440 506 29,000  Level Washington Center
06:51AM 37.8719 -79.6853 85° East 440 506 29,000  Level Washington Center
06:52AM 37.8814 -79.5253 86° East 440 506 29,000  Level Washington Center
06:53AM 37.8908 -79.3653 86° East 445 512 29,000  Level Washington Center
06:54AM 37.9000 -79.2050 86° East 445 512 29,000  Level Washington Center
06:55AM 37.9083 -79.0633 86° East 452 520 29,000  Level Washington Center
06:56AM 37.9294 -78.9036 80° East 452 520 29,000  Level Washington Center
06:57AM 37.9483 -78.7464 81° East 452 520 29,000  Level Washington Center
06:58AM 37.9669 -78.5867 82° East 457 526 29,000  Level Washington Center
06:59AM 37.9853 -78.4292 82° East 457 526 29,000  Level Washington Center
07:00AM 38.0039 -78.2533 82° East 457 526 29,000  Level Washington Center
07:01AM 38.0133 -78.1142 85° East 457 526 29,000  Level Washington Center
07:02AM 38.0247 -77.9564 85° East 452 520 29,000  Level Washington Center
07:03AM 38.0342 -77.7958 86° East 452 520 29,000  Level Washington Center
07:04AM 38.0472 -77.6378 84° East 452 520 29,000  Level Washington Center
07:05AM 38.0975 -77.4994 65° Northeast 431 496 29,000  Level Washington Center
07:06AM 38.1517 -77.3661 63° Northeast 426 490 29,000  Level Washington Center
07:07AM 38.2122 -77.2222 62° Northeast 438 504 29,000  Level Washington Center
07:08AM 38.2725 -77.0753 62° Northeast 452 520 29,000  Level Washington Center
07:09AM 38.3325 -76.9283 62° Northeast 459 528 29,000  Level Washington Center
07:10AM 38.4050 -76.7919 56° Northeast 459 528 29,000  Level Washington Center
07:11AM 38.4814 -76.6525 55° Northeast 470 541 29,000  Level Washington Center
07:12AM 38.5553 -76.5156 55° Northeast 470 541 29,000  Level Washington Center
07:13AM 38.6294 -76.3783 55° Northeast 470 541 29,000  Level Washington Center
07:14AM 38.7011 -76.2408 56° Northeast 470 541 29,000 -360 Level Washington Center
07:15AM 38.7872 -76.0844 55° Northeast 470 541 28,300 -900 Descending Washington Center
07:16AM 38.8606 -75.9461 56° Northeast 470 541 27,300 -660 Descending Washington Center
07:17AM 38.9361 -75.8106 54° Northeast 465 535 27,000 -180 Descending Washington Center
07:18AM 39.0278 -75.7119 40° Northeast 433 498 27,000  Level Washington Center
07:19AM 39.1239 -75.6183 37° Northeast 428 493 27,000  Level Washington Center
07:20AM 39.2197 -75.5272 36° Northeast 428 493 27,000  Level Washington Center
07:21AM 39.3175 -75.4414 34° Northeast 428 493 27,000 -180 Level Washington Center
07:22AM 39.4175 -75.3553 34° Northeast 428 493 26,700 -1,320 Descending Washington Center
07:23AM 39.5131 -75.2686 35° Northeast 428 493 24,400 -2,340 Descending Washington Center
07:24AM 39.6044 -75.1822 36° Northeast 418 481 22,000 -2,220 Descending Washington Center
07:25AM 39.6875 -75.1061 35° Northeast 405 466 20,100 -2,040 Descending Washington Center
07:26AM 39.7872 -75.0192 34° Northeast 398 458 18,100 -2,040 Descending Washington Center
07:27AM 39.8661 -74.9508 34° Northeast 393 452 16,100 -2,280 Descending Washington Center
07:28AM 39.9667 -74.8500 38° Northeast 376 433 13,400 -2,340 Descending New York TRACON
07:29AM 40.0333 -74.7500 49° Northeast 363 418 11,300 -1,740 Descending New York TRACON
07:30AM 40.0833 -74.6667 52° Northeast 357 411 10,200 -720 Descending New York TRACON
07:31AM 40.1500 -74.5667 49° Northeast 355 409 10,000 -660 Descending New York TRACON
07:32AM 40.2167 -74.4833 44° Northeast 291 335 8,900 -1,080 Descending New York TRACON
07:33AM 40.2667 -74.4167 45° Northeast 262 302 8,000 -480 Descending New York TRACON
07:34AM 40.3167 -74.3500 45° Northeast 248 285 8,000  Level New York TRACON
07:35AM 40.3667 -74.3000 37° Northeast 239 275 8,000 -120 Level New York TRACON
07:36AM 40.4000 -74.2333 57° Northeast 246 283 7,800 -600 Descending New York TRACON
07:37AM 40.4500 -74.1833 37° Northeast 244 281 6,900 -960 Descending New York TRACON
07:38AM 40.5000 -74.1167 45° Northeast 244 281 5,900 -1,020 Descending New York TRACON
07:39AM 40.5500 -74.0667 37° Northeast 237 273 4,900 -960 Descending New York TRACON
07:40AM 40.6000 -74.0167 37° Northeast 227 261 4,100 -840 Descending New York TRACON
07:41AM 40.6500 -73.9833 27° Northeast 219 252 3,400 -660 Descending New York TRACON
07:42AM 40.7000 -73.9333 37° Northeast 185 213 2,800 -600 Descending New York TRACON